Cascade Locks, Oregon
Current Conditions -  °F | °C
As of 5:59 AM on Thursday 30 Oct 2014 (Local Time) from K4S2 Reporting Station
Moderate Rain Moderate Rain  
Wind Chill: 52°   Ceiling: 5000
Heat Index: 52°   Visibility: 2mi
Dew Point: 52°   Wind: 0mph
Humidity: 100%   Direction: NA
Pressure: 30.04"   Gusts: NA
Location:  45.67°N, 121.89°W
Report Text: K4S2 301259Z AUTO 00000KT 2SM RA SCT023 BKN050 OVC080 11/11 A3004 RMK AO2 P0002 SLP186 T01100110
Loading
Personal Weather Stations






























Interactive Weather Map
Tropical Storm Tracking
New forecast layout! Learn more

10-Day Weather Forecast

Advertisements
Track Severe Weather on mobile